Diplomat Plaza, Indiana
Current Conditions -  °F | °C
As of 9:54 AM on Sunday 21 Dec 2014 (Local Time) from KFWA Reporting Station
Haze Haze  
Wind Chill: 22°   Ceiling: 5500
Heat Index: 30°   Visibility: 4mi
Dew Point: 26°   Wind: 8mph
Humidity: 85%   Direction: 180°S
Pressure: 30.3"   Gusts: NA
Location:  41.0463°N, 85.1064°W
Report Text: KFWA 211454Z 18007KT 4SM BR OVC055 M01/M03 A3030 RMK AO2 SLP271 T10111033 53001
Loading
Personal Weather Stations






























Interactive Weather Map New forecast layout! Learn more

10-Day Weather Forecast

Advertisements
Track Severe Weather on mobile